CheckWX is a tool to help pilots better visualize weather data.  It is not intended as a substitute for an official pre-flight weather briefing.

17:35:11 UTC

KFWA METAR
Fort Wayne International Airport
Fort Wayne, Indiana, USA
Current

41 mins ago

KFWA 201654Z 32009G17KT 10SM BKN036 BKN110 M04/M12 A3063 RMK AO2 SLP384 T10441117
Observed
Feb-20 @ 16:54 UTC
Wind
  • 320° at 9 KTS
  • Gusting to 17 KTS
Visibility
10 SM
Flight Rules
VFR
Cloud Levels
  • Broken at 3,600' AGL
  • Broken at 11,000' AGL
Temperature
-4°C / 25°F
Dewpoint
-12°C / 10°F
Humidity
54%
Altimeter
30.63" Hg
Pressure
1037.22 hPa
Previous

2 hours ago

KFWA 201554Z 02009G17KT 10SM FEW026 BKN033 BKN085 M04/M11 A3063 RMK AO2 SLP383 T10441111
Observed
Feb-20 @ 15:54 UTC
Wind
  • 020° at 9 KTS
  • Gusting to 17 KTS
Visibility
10 SM
Flight Rules
VFR
Cloud Levels
  • Few at 2,600' AGL
  • Broken at 3,300' AGL
  • Broken at 8,500' AGL
Temperature
-4°C / 25°F
Dewpoint
-11°C / 12°F
Humidity
59%
Altimeter
30.63" Hg
Pressure
1037.22 hPa
Previous

3 hours ago

KFWA 201454Z 01011G17KT 10SM SCT030 SCT075 BKN210 M05/M11 A3062 RMK AO2 SLP380 T10501111 51016
Observed
Feb-20 @ 14:54 UTC
Wind
  • 010° at 11 KTS
  • Gusting to 17 KTS
Visibility
10 SM
Flight Rules
VFR
Cloud Levels
  • Scattered at 3,000' AGL
  • Scattered at 7,500' AGL
  • Broken at 21,000' AGL
Temperature
-5°C / 23°F
Dewpoint
-11°C / 12°F
Humidity
63%
Altimeter
30.62" Hg
Pressure
1036.92 hPa